createdAt,value
2018-11-28T00:00:04.441Z,20.47
2018-11-28T00:02:32.589Z,22.17
2018-11-28T00:05:00.730Z,20.67
2018-11-28T00:07:28.874Z,21.13
2018-11-28T00:09:57.008Z,21.03
2018-11-28T00:12:25.177Z,21.60
2018-11-28T00:14:53.321Z,20.70
2018-11-28T00:17:21.477Z,20.97
2018-11-28T00:19:49.629Z,21.40
2018-11-28T00:22:17.782Z,22.17
2018-11-28T00:24:45.911Z,21.33
2018-11-28T00:27:14.061Z,21.47
2018-11-28T00:29:42.208Z,21.50
2018-11-28T00:32:10.349Z,21.07
2018-11-28T00:34:38.557Z,22.07
2018-11-28T00:37:07.085Z,20.30
2018-11-28T00:39:35.232Z,21.30
2018-11-28T00:42:03.675Z,22.07
2018-11-28T00:44:31.837Z,22.27
2018-11-28T00:46:59.973Z,22.47
2018-11-28T00:49:28.130Z,21.67
2018-11-28T00:51:56.261Z,22.70
2018-11-28T00:54:24.416Z,22.30
2018-11-28T00:56:52.579Z,22.10
2018-11-28T00:59:20.720Z,20.93
2018-11-28T01:01:48.867Z,22.50
2018-11-28T01:04:17.028Z,21.10
2018-11-28T01:06:45.162Z,22.97
2018-11-28T01:09:13.315Z,22.23
2018-11-28T01:11:41.470Z,22.67
2018-11-28T01:14:09.639Z,22.13
2018-11-28T01:16:37.835Z,22.97
2018-11-28T01:19:06.104Z,22.20
2018-11-28T01:21:34.237Z,22.57
2018-11-28T01:24:02.373Z,22.50
2018-11-28T01:26:30.766Z,22.97
2018-11-28T01:28:58.914Z,22.50
2018-11-28T01:31:27.053Z,22.40
2018-11-28T01:33:55.505Z,22.87
2018-11-28T01:36:23.629Z,23.50
2018-11-28T01:38:51.824Z,23.67
2018-11-28T01:41:20.357Z,22.17
2018-11-28T01:43:48.508Z,23.77
2018-11-28T01:46:16.646Z,22.93
2018-11-28T01:48:44.808Z,22.63
2018-11-28T01:51:12.942Z,23.03
2018-11-28T01:53:41.113Z,23.57
2018-11-28T01:56:09.559Z,23.73
2018-11-28T01:58:38.166Z,23.10
2018-11-28T02:01:06.309Z,23.57
2018-11-28T02:03:34.438Z,24.23
2018-11-28T02:06:02.584Z,24.93
2018-11-28T02:08:30.737Z,23.10
2018-11-28T02:10:58.868Z,23.50
2018-11-28T02:13:27.369Z,24.57
2018-11-28T02:15:55.524Z,24.73
2018-11-28T02:18:23.669Z,24.30
2018-11-28T02:20:51.816Z,24.73
2018-11-28T02:23:20.304Z,22.47
2018-11-28T02:25:48.462Z,23.03
2018-11-28T02:28:16.904Z,23.80
2018-11-28T02:30:45.046Z,24.20
2018-11-28T02:33:13.469Z,23.50
2018-11-28T02:35:41.633Z,24.37
2018-11-28T02:38:09.853Z,24.70
2018-11-28T02:40:38.023Z,24.47
2018-11-28T02:43:06.660Z,24.57
2018-11-28T02:45:35.161Z,23.53
2018-11-28T02:48:03.314Z,23.97
2018-11-28T02:50:31.475Z,25.03
2018-11-28T02:52:59.614Z,24.30
2018-11-28T02:55:27.758Z,24.33
2018-11-28T02:57:55.899Z,24.53
2018-11-28T03:00:25.219Z,25.47
2018-11-28T03:02:53.462Z,25.43
2018-11-28T03:05:21.672Z,25.27
2018-11-28T03:07:50.131Z,26.33
2018-11-28T03:10:20.357Z,25.07
2018-11-28T03:12:48.503Z,26.50
2018-11-28T03:15:29.860Z,25.47
2018-11-28T03:17:58.022Z,25.40
2018-11-28T03:20:26.164Z,24.67
2018-11-28T03:22:54.300Z,24.13
2018-11-28T03:25:22.852Z,25.10
2018-11-28T03:27:50.988Z,25.10
2018-11-28T03:30:19.157Z,26.57
2018-11-28T03:32:47.282Z,25.53
2018-11-28T03:35:16.010Z,24.43
2018-11-28T03:37:44.578Z,25.40
2018-11-28T03:40:12.921Z,26.77
2018-11-28T03:42:41.545Z,26.50
2018-11-28T03:45:12.365Z,27.07
2018-11-28T03:47:41.169Z,27.47
2018-11-28T03:50:10.379Z,27.37
2018-11-28T03:52:39.541Z,25.90
2018-11-28T03:55:11.000Z,26.67
2018-11-28T03:57:39.193Z,27.27
2018-11-28T04:00:17.382Z,25.33
2018-11-28T04:02:45.531Z,26.07
2018-11-28T04:05:13.746Z,26.10
2018-11-28T04:07:41.920Z,26.17
2018-11-28T04:10:13.774Z,26.57
2018-11-28T04:12:42.549Z,25.60
2018-11-28T04:15:12.973Z,26.43
2018-11-28T04:17:42.216Z,25.73
2018-11-28T04:20:11.877Z,25.27
2018-11-28T04:22:40.093Z,24.40
2018-11-28T04:25:09.250Z,25.90
2018-11-28T04:27:37.424Z,25.10
2018-11-28T04:30:10.808Z,25.37
2018-11-28T04:32:39.582Z,25.80
2018-11-28T04:35:09.313Z,24.00
2018-11-28T04:37:37.813Z,25.40
2018-11-28T04:40:09.685Z,25.90
2018-11-28T04:42:38.150Z,25.10
2018-11-28T04:45:08.406Z,24.87
2018-11-28T04:47:36.809Z,25.37
2018-11-28T04:50:06.226Z,24.77
2018-11-28T04:52:34.383Z,25.63
2018-11-28T04:55:02.530Z,24.97
2018-11-28T04:57:30.672Z,24.17
2018-11-28T04:59:58.825Z,25.20
2018-11-28T05:02:26.978Z,24.73
2018-11-28T05:04:55.126Z,24.33
2018-11-28T05:07:25.588Z,25.53
2018-11-28T05:09:53.857Z,26.57
2018-11-28T05:12:22.372Z,25.63
2018-11-28T05:14:51.024Z,26.50
2018-11-28T05:17:19.340Z,24.50
2018-11-28T05:19:47.485Z,24.67
2018-11-28T05:22:15.629Z,26.10
2018-11-28T05:24:43.759Z,25.10
2018-11-28T05:27:11.912Z,24.73
2018-11-28T05:29:40.109Z,24.53
2018-11-28T05:32:08.842Z,24.60
2018-11-28T05:34:36.992Z,23.97
2018-11-28T05:37:05.585Z,24.03
2018-11-28T05:39:33.744Z,24.10
2018-11-28T05:42:01.880Z,23.20
2018-11-28T05:44:30.034Z,24.03
2018-11-28T05:46:58.194Z,24.30
2018-11-28T05:49:26.344Z,23.10
2018-11-28T05:51:54.500Z,22.50
2018-11-28T05:54:22.628Z,24.53
2018-11-28T05:56:51.060Z,23.70
2018-11-28T05:59:19.465Z,23.23
2018-11-28T06:01:47.606Z,23.77
2018-11-28T06:04:15.825Z,23.47
2018-11-28T06:06:43.968Z,23.57
2018-11-28T06:09:12.143Z,23.80
2018-11-28T06:11:40.286Z,23.50
2018-11-28T06:14:08.510Z,23.43
2018-11-28T06:16:37.583Z,23.13
2018-11-28T06:19:06.950Z,22.87
2018-11-28T06:21:35.441Z,22.13
2018-11-28T06:24:03.581Z,23.93
2018-11-28T06:26:31.744Z,22.60
2018-11-28T06:28:59.941Z,23.43
2018-11-28T06:31:28.390Z,23.37
2018-11-28T06:33:56.547Z,24.33
2018-11-28T06:36:24.703Z,23.53
2018-11-28T06:38:52.855Z,22.90
2018-11-28T06:41:20.993Z,24.70
2018-11-28T06:43:49.545Z,23.10
2018-11-28T06:46:17.689Z,23.20
2018-11-28T06:48:45.840Z,23.20
2018-11-28T06:51:13.983Z,23.67
2018-11-28T06:53:42.159Z,22.83
2018-11-28T06:56:10.305Z,23.70
2018-11-28T06:58:38.461Z,23.60
2018-11-28T07:01:07.162Z,22.57
2018-11-28T07:03:35.323Z,22.87
2018-11-28T07:06:03.565Z,23.80
2018-11-28T07:08:31.717Z,21.73
2018-11-28T07:10:59.846Z,23.70
2018-11-28T07:13:28.057Z,22.67
2018-11-28T07:15:56.184Z,22.43
2018-11-28T07:18:35.881Z,21.73
2018-11-28T07:21:04.514Z,21.77
2018-11-28T07:23:32.965Z,21.73
2018-11-28T07:26:01.236Z,22.03
2018-11-28T07:28:29.553Z,21.63
2018-11-28T07:30:57.843Z,22.67
2018-11-28T07:33:26.189Z,21.97
2018-11-28T07:35:54.495Z,22.13
2018-11-28T07:38:22.804Z,22.03
2018-11-28T07:40:51.132Z,22.23
2018-11-28T07:43:19.533Z,22.47
2018-11-28T07:45:49.153Z,21.57
2018-11-28T07:48:17.477Z,22.70
2018-11-28T07:50:45.769Z,22.03
2018-11-28T07:53:14.131Z,21.57
2018-11-28T07:55:42.418Z,23.47
2018-11-28T07:58:10.821Z,21.33
2018-11-28T08:00:39.142Z,21.67
2018-11-28T08:03:08.651Z,22.57
2018-11-28T08:05:38.003Z,22.27
2018-11-28T08:08:09.767Z,20.77
2018-11-28T08:10:38.213Z,21.00
2018-11-28T08:13:07.105Z,21.73
2018-11-28T08:15:35.444Z,23.17
2018-11-28T08:18:03.816Z,23.10
2018-11-28T08:20:32.134Z,23.07
2018-11-28T08:23:00.445Z,21.27
2018-11-28T08:25:28.773Z,21.93
2018-11-28T08:27:57.193Z,21.57
2018-11-28T08:30:26.364Z,20.73
2018-11-28T08:32:55.598Z,20.40
2018-11-28T08:35:24.045Z,21.77
2018-11-28T08:37:52.410Z,22.33
2018-11-28T08:40:24.792Z,21.40
2018-11-28T08:42:53.898Z,32.90
2018-11-28T08:45:22.308Z,20.67
2018-11-28T08:47:52.841Z,20.57
2018-11-28T08:50:27.233Z,20.47
2018-11-28T08:52:55.549Z,22.13
2018-11-28T08:55:23.912Z,20.63
2018-11-28T08:57:52.261Z,21.93
2018-11-28T09:00:21.441Z,21.03
2018-11-28T09:02:50.815Z,21.63
2018-11-28T09:05:19.205Z,20.27
2018-11-28T09:07:47.531Z,20.97
2018-11-28T09:10:17.481Z,20.53
2018-11-28T09:12:46.252Z,19.30
2018-11-28T09:15:16.662Z,20.03
2018-11-28T09:17:44.967Z,20.77
2018-11-28T09:20:14.097Z,21.87
2018-11-28T09:22:42.456Z,19.33
2018-11-28T09:25:13.079Z,19.60
2018-11-28T09:27:41.313Z,19.33
2018-11-28T09:30:11.998Z,19.43
2018-11-28T09:32:40.296Z,18.70
2018-11-28T09:35:10.314Z,18.07
2018-11-28T09:37:38.670Z,18.57
2018-11-28T09:40:17.624Z,19.37
2018-11-28T09:42:45.917Z,18.07
2018-11-28T09:45:15.225Z,18.47
2018-11-28T09:47:43.378Z,18.50
2018-11-28T09:50:12.759Z,19.03
2018-11-28T09:52:40.920Z,18.43
2018-11-28T09:55:15.570Z,18.07
2018-11-28T09:57:43.788Z,18.90
2018-11-28T10:00:13.652Z,18.00
2018-11-28T10:02:41.796Z,18.43
2018-11-28T10:05:14.205Z,17.37
2018-11-28T10:07:42.400Z,17.93
2018-11-28T10:10:11.760Z,18.43
2018-11-28T10:12:40.034Z,19.17
2018-11-28T10:15:12.121Z,18.37
2018-11-28T10:17:40.384Z,17.53
2018-11-28T10:20:09.584Z,17.17
2018-11-28T10:22:37.730Z,15.83
2018-11-28T10:25:06.833Z,16.20
2018-11-28T10:27:34.984Z,16.13
2018-11-28T10:30:03.362Z,16.43
2018-11-28T10:32:31.501Z,17.33
2018-11-28T10:34:59.661Z,16.23
2018-11-28T10:37:27.797Z,16.30
2018-11-28T10:39:55.952Z,15.17
2018-11-28T10:42:24.106Z,15.30
2018-11-28T10:44:52.257Z,15.00
2018-11-28T10:47:20.409Z,15.43
2018-11-28T10:49:48.858Z,15.27
2018-11-28T10:52:16.991Z,15.13
2018-11-28T10:54:45.156Z,15.63
2018-11-28T10:57:13.298Z,16.03
2018-11-28T10:59:41.573Z,14.33
2018-11-28T11:02:15.244Z,15.13
2018-11-28T11:04:48.795Z,14.60
2018-11-28T11:07:22.528Z,14.93
2018-11-28T11:09:56.421Z,15.30
2018-11-28T11:12:29.911Z,15.37
2018-11-28T11:14:58.061Z,14.40
2018-11-28T11:17:26.219Z,16.00
2018-11-28T11:19:54.661Z,15.47
2018-11-28T11:22:22.824Z,16.50
2018-11-28T11:24:50.957Z,15.97
2018-11-28T11:27:19.099Z,16.90
2018-11-28T11:29:47.245Z,16.50
2018-11-28T11:32:15.374Z,16.83
2018-11-28T11:34:43.516Z,16.77
2018-11-28T11:37:11.756Z,15.53
2018-11-28T11:39:39.902Z,15.53
2018-11-28T11:42:08.056Z,16.77
2018-11-28T11:44:36.187Z,16.37
2018-11-28T11:47:04.873Z,15.40
2018-11-28T11:49:33.357Z,14.47
2018-11-28T11:52:01.670Z,15.40
2018-11-28T11:54:31.250Z,15.73
2018-11-28T11:56:58.336Z,15.63
2018-11-28T11:59:26.629Z,14.40
2018-11-28T12:01:55.325Z,16.17
2018-11-28T12:04:23.625Z,14.87
2018-11-28T12:06:51.901Z,15.07
2018-11-28T12:09:20.198Z,16.20
2018-11-28T12:11:48.521Z,16.33
2018-11-28T12:14:16.841Z,16.33
2018-11-28T12:16:45.223Z,16.47
2018-11-28T12:19:13.548Z,16.07
2018-11-28T12:21:41.944Z,16.43
2018-11-28T12:24:10.295Z,16.13
2018-11-28T12:26:38.767Z,15.20
2018-11-28T12:29:07.190Z,16.00
2018-11-28T12:31:35.581Z,15.30
2018-11-28T12:34:03.899Z,15.87
2018-11-28T12:36:32.270Z,15.60
2018-11-28T12:39:00.565Z,15.77
2018-11-28T12:41:28.918Z,14.83
2018-11-28T12:43:57.243Z,15.23
2018-11-28T12:46:25.596Z,15.43
2018-11-28T12:48:53.942Z,15.13
2018-11-28T12:51:22.265Z,15.00
2018-11-28T12:53:50.568Z,15.73
2018-11-28T12:56:18.886Z,15.40
2018-11-28T12:58:47.194Z,15.30
2018-11-28T13:01:15.527Z,15.60
2018-11-28T13:03:43.817Z,16.00
2018-11-28T13:06:12.193Z,16.40
2018-11-28T13:08:40.659Z,16.07
2018-11-28T13:11:09.015Z,16.23
2018-11-28T13:13:37.347Z,16.50
2018-11-28T13:16:05.876Z,15.83
2018-11-28T13:18:34.197Z,15.00
2018-11-28T13:21:02.547Z,15.00
2018-11-28T13:23:30.861Z,16.13
2018-11-28T13:25:59.197Z,15.43
2018-11-28T13:28:27.513Z,15.10
2018-11-28T13:30:55.801Z,15.27
2018-11-28T13:33:24.135Z,15.17
2018-11-28T13:35:52.461Z,16.27
2018-11-28T13:40:49.100Z,15.07
2018-11-28T13:43:17.433Z,15.33
2018-11-28T13:45:47.096Z,15.60
2018-11-28T13:48:16.261Z,15.37
2018-11-28T13:50:44.686Z,15.73
2018-11-28T13:53:15.265Z,15.83
2018-11-28T13:56:29.884Z,15.27
2018-11-28T13:58:18.849Z,13.77
2018-11-28T14:00:47.212Z,15.83
2018-11-28T14:03:15.565Z,16.13
2018-11-28T14:05:43.917Z,15.37
2018-11-28T14:08:12.229Z,15.03
2018-11-28T14:10:40.670Z,15.67
2018-11-28T14:13:09.070Z,16.20
2018-11-28T14:15:37.433Z,15.00
2018-11-28T14:18:15.001Z,16.77
2018-11-28T14:20:43.471Z,16.13
2018-11-28T14:23:11.837Z,16.43
2018-11-28T14:25:40.213Z,16.90
2018-11-28T14:28:08.986Z,17.97
2018-11-28T14:30:37.823Z,17.60
2018-11-28T14:33:06.133Z,18.50
2018-11-28T14:35:34.489Z,20.00
2018-11-28T14:38:02.816Z,18.17
2018-11-28T14:40:31.174Z,19.23
2018-11-28T14:42:59.727Z,18.37
2018-11-28T14:45:28.645Z,19.10
2018-11-28T14:47:56.986Z,19.47
2018-11-28T14:50:27.751Z,20.03
2018-11-28T14:52:58.263Z,18.63
2018-11-28T14:55:28.502Z,19.00
2018-11-28T14:57:56.799Z,18.00
2018-11-28T15:00:26.061Z,18.30
2018-11-28T15:03:02.413Z,18.27
2018-11-28T15:05:42.337Z,18.77
2018-11-28T15:08:16.184Z,18.20
2018-11-28T15:11:20.320Z,16.87
2018-11-28T15:13:48.474Z,18.50
2018-11-28T15:16:16.604Z,19.20
2018-11-28T15:18:44.834Z,18.40
2018-11-28T15:21:12.968Z,17.87
2018-11-28T15:23:41.191Z,18.70
2018-11-28T15:26:09.809Z,17.97
2018-11-28T15:28:37.973Z,18.57
2018-11-28T15:31:06.104Z,19.13
2018-11-28T15:33:34.264Z,18.60
2018-11-28T15:36:02.408Z,18.33
2018-11-28T15:38:30.549Z,18.40
2018-11-28T15:40:58.683Z,18.10
2018-11-28T15:43:26.834Z,17.83
2018-11-28T15:45:54.970Z,18.07
2018-11-28T15:48:23.126Z,18.53
2018-11-28T15:50:51.260Z,18.70
2018-11-28T15:53:19.410Z,18.00
2018-11-28T15:55:49.621Z,16.87
2018-11-28T15:58:17.835Z,17.63
2018-11-28T16:00:46.082Z,16.77
2018-11-28T16:03:14.237Z,16.60
2018-11-28T16:05:42.405Z,16.87
2018-11-28T16:08:10.545Z,17.13
2018-11-28T16:10:41.662Z,16.50
2018-11-28T16:13:09.938Z,16.53
2018-11-28T16:15:56.281Z,16.17
2018-11-28T16:18:24.439Z,15.77
2018-11-28T16:20:52.606Z,16.57
2018-11-28T16:23:20.795Z,16.33
2018-11-28T16:25:49.361Z,15.93
2018-11-28T16:28:17.531Z,16.53
2018-11-28T16:30:45.675Z,15.37
2018-11-28T16:33:13.844Z,15.73
2018-11-28T16:35:42.004Z,15.13
2018-11-28T16:38:10.165Z,16.03
2018-11-28T16:40:38.339Z,15.53
2018-11-28T16:43:06.570Z,15.83
2018-11-28T16:45:34.882Z,16.00
2018-11-28T16:48:03.155Z,14.40
2018-11-28T16:50:31.321Z,15.57
2018-11-28T16:52:59.445Z,16.17
2018-11-28T16:55:27.862Z,15.80
2018-11-28T16:57:56.364Z,15.40
2018-11-28T17:00:31.972Z,15.27
2018-11-28T17:03:00.145Z,15.77
2018-11-28T17:05:28.309Z,15.33
2018-11-28T17:07:56.445Z,15.57
2018-11-28T17:10:26.092Z,14.23
2018-11-28T17:12:54.998Z,15.17
2018-11-28T17:15:23.148Z,15.50
2018-11-28T17:17:51.310Z,15.73
2018-11-28T17:20:21.554Z,15.90
2018-11-28T17:22:50.746Z,15.87
2018-11-28T17:25:20.490Z,15.17
2018-11-28T17:27:48.672Z,15.47
2018-11-28T17:30:19.287Z,15.97
2018-11-28T17:32:47.315Z,15.87
2018-11-28T17:35:15.744Z,15.83
2018-11-28T17:37:44.249Z,16.23
2018-11-28T17:40:14.512Z,15.77
2018-11-28T17:42:43.284Z,17.63
2018-11-28T17:45:13.743Z,16.77
2018-11-28T17:47:41.938Z,15.47
2018-11-28T17:50:14.373Z,15.47
2018-11-28T17:52:44.289Z,15.73
2018-11-28T17:55:14.575Z,15.37
2018-11-28T17:57:42.796Z,15.97
2018-11-28T18:00:12.340Z,16.30
2018-11-28T18:02:40.806Z,14.77
2018-11-28T18:05:09.948Z,15.57
2018-11-28T18:07:38.184Z,16.13
2018-11-28T18:10:12.017Z,16.13
2018-11-28T18:12:51.609Z,16.03
2018-11-28T18:15:19.942Z,15.50
2018-11-28T18:17:48.426Z,15.63
2018-11-28T18:20:16.593Z,15.73
2018-11-28T18:22:44.852Z,16.67
2018-11-28T18:25:13.327Z,15.53
2018-11-28T18:27:41.701Z,16.03
2018-11-28T18:30:11.268Z,14.77
2018-11-28T18:32:39.711Z,15.83
2018-11-28T18:35:14.340Z,16.17
2018-11-28T18:37:42.513Z,15.23
2018-11-28T18:40:11.894Z,15.33
2018-11-28T18:42:40.987Z,15.67
2018-11-28T18:45:18.355Z,14.13
2018-11-28T18:47:46.296Z,15.60
2018-11-28T18:50:14.704Z,15.40
2018-11-28T18:52:43.248Z,15.23
2018-11-28T18:55:16.595Z,15.27
2018-11-28T18:57:42.043Z,15.43
2018-11-28T19:00:17.859Z,15.17
2018-11-28T19:02:46.136Z,15.53
2018-11-28T19:08:29.203Z,16.03
2018-11-28T19:10:59.416Z,16.43
2018-11-28T19:13:27.461Z,15.27
2018-11-28T19:15:56.594Z,15.27
2018-11-28T19:18:25.077Z,16.03
2018-11-28T19:20:53.454Z,15.07
2018-11-28T19:23:22.558Z,15.13
2018-11-28T19:25:50.916Z,14.93
2018-11-28T19:28:19.073Z,15.80
2018-11-28T19:31:51.091Z,15.73
2018-11-28T19:34:19.358Z,16.70
2018-11-28T19:36:47.473Z,15.07
2018-11-28T19:39:18.719Z,16.13
2018-11-28T19:41:46.916Z,15.57
2018-11-28T19:44:15.114Z,16.00
2018-11-28T19:46:43.598Z,15.13
2018-11-28T19:49:11.789Z,15.73
2018-11-28T19:51:40.363Z,15.53
2018-11-28T19:54:08.941Z,15.77
2018-11-28T19:56:37.403Z,15.50
2018-11-28T19:59:06.327Z,15.57
2018-11-28T20:01:34.960Z,16.07
2018-11-28T20:04:04.205Z,16.13
2018-11-28T20:06:32.522Z,15.73
2018-11-28T20:09:00.744Z,15.80
2018-11-28T20:11:29.186Z,16.33
2018-11-28T20:13:57.670Z,16.37
2018-11-28T20:16:26.098Z,16.40
2018-11-28T20:18:54.572Z,16.30
2018-11-28T20:21:22.832Z,16.30
2018-11-28T20:23:51.245Z,15.50
2018-11-28T20:26:19.588Z,17.07
2018-11-28T20:28:47.957Z,16.50
2018-11-28T20:31:16.374Z,16.80
2018-11-28T20:33:44.857Z,16.63
2018-11-28T20:36:13.340Z,17.53
2018-11-28T20:38:41.694Z,17.57
2018-11-28T20:41:10.035Z,17.37
2018-11-28T20:43:38.550Z,17.03
2018-11-28T20:46:07.274Z,17.60
2018-11-28T20:48:35.755Z,19.40
2018-11-28T20:51:04.172Z,17.43
2018-11-28T20:53:32.558Z,18.50
2018-11-28T20:56:00.904Z,18.97
2018-11-28T20:58:29.300Z,17.90
2018-11-28T21:00:57.872Z,18.37
2018-11-28T21:03:26.308Z,18.37
2018-11-28T21:05:54.793Z,18.50
2018-11-28T21:08:23.117Z,19.13
2018-11-28T21:10:51.376Z,19.40
2018-11-28T21:13:19.717Z,19.13
2018-11-28T21:15:48.045Z,18.87
2018-11-28T21:18:16.384Z,18.17
2018-11-28T21:20:45.754Z,18.33
2018-11-28T21:23:15.320Z,17.60
2018-11-28T21:25:43.613Z,18.27
2018-11-28T21:28:11.961Z,18.20
2018-11-28T21:30:40.297Z,18.90
2018-11-28T21:33:09.469Z,19.37
2018-11-28T21:35:39.278Z,19.70
2018-11-28T21:38:08.451Z,19.43
2018-11-28T21:40:36.910Z,19.87
2018-11-28T21:43:05.766Z,19.27
2018-11-28T21:45:34.113Z,19.10
2018-11-28T21:48:02.434Z,20.23
2018-11-28T21:50:30.762Z,19.67
2018-11-28T21:52:59.088Z,18.83
2018-11-28T21:55:27.412Z,19.60
2018-11-28T21:57:55.850Z,19.33
2018-11-28T22:00:25.430Z,18.93
2018-11-28T22:02:53.915Z,18.40
2018-11-28T22:05:22.713Z,20.23
2018-11-28T22:07:51.018Z,18.73
2018-11-28T22:10:23.372Z,19.20
2018-11-28T22:12:51.860Z,20.20
2018-11-28T22:15:20.178Z,18.50
2018-11-28T22:17:50.645Z,19.87
2018-11-28T22:20:18.965Z,18.87
2018-11-28T22:22:47.327Z,18.30
2018-11-28T22:25:18.681Z,17.63
2018-11-28T22:27:47.034Z,18.70
2018-11-28T22:30:16.452Z,18.77
2018-11-28T22:32:44.869Z,18.50
2018-11-28T22:35:13.216Z,18.00
2018-11-28T22:37:41.599Z,18.77
2018-11-28T22:40:12.970Z,17.47
2018-11-28T22:42:41.119Z,19.00
2018-11-28T22:45:16.393Z,18.90
2018-11-28T22:47:44.548Z,19.00
2018-11-28T22:50:13.112Z,18.53
2018-11-28T22:52:41.236Z,19.03
2018-11-28T22:55:10.522Z,17.77
2018-11-28T22:57:38.780Z,17.67
2018-11-28T23:00:17.030Z,19.10
2018-11-28T23:02:50.172Z,17.90
2018-11-28T23:05:18.837Z,17.90
2018-11-28T23:07:47.218Z,19.10
2018-11-28T23:10:15.444Z,17.43
2018-11-28T23:12:43.584Z,18.13
2018-11-28T23:15:11.752Z,18.57
2018-11-28T23:17:39.902Z,18.23
2018-11-28T23:20:09.121Z,16.83
2018-11-28T23:22:37.271Z,18.63
2018-11-28T23:25:08.133Z,18.63
2018-11-28T23:27:36.578Z,17.37
2018-11-28T23:30:06.309Z,18.13
2018-11-28T23:32:34.462Z,18.87
2018-11-28T23:35:02.865Z,18.60
2018-11-28T23:37:31.046Z,18.43
2018-11-28T23:39:59.193Z,18.30
2018-11-28T23:42:27.667Z,19.10
2018-11-28T23:44:55.823Z,19.30
2018-11-28T23:47:24.064Z,19.00
2018-11-28T23:49:52.268Z,20.27
2018-11-28T23:52:20.780Z,18.37
2018-11-28T23:54:49.245Z,19.30
2018-11-28T23:57:17.430Z,18.93
2018-11-28T23:59:45.570Z,19.10
